createdAt,value
2022-08-06T00:02:05.935Z,20.13
2022-08-06T00:04:53.479Z,19.97
2022-08-06T00:07:47.702Z,20.97
2022-08-06T00:10:34.045Z,20.89
2022-08-06T00:13:20.727Z,20.86
2022-08-06T00:16:10.855Z,19.73
2022-08-06T00:19:17.794Z,20.81
2022-08-06T00:22:03.682Z,20.77
2022-08-06T00:24:49.637Z,20.90
2022-08-06T00:27:38.385Z,20.67
2022-08-06T00:30:24.648Z,20.89
2022-08-06T00:33:10.467Z,20.87
2022-08-06T00:36:00.997Z,20.58
2022-08-06T00:38:46.873Z,20.74
2022-08-06T00:41:41.639Z,20.32
2022-08-06T00:44:31.665Z,20.25
2022-08-06T00:47:41.278Z,19.67
2022-08-06T00:50:23.164Z,20.57
2022-08-06T00:53:13.819Z,20.62
2022-08-06T00:56:09.024Z,20.59
2022-08-06T00:59:03.256Z,20.59
2022-08-06T01:01:51.254Z,20.41
2022-08-06T01:04:37.624Z,20.50
2022-08-06T01:07:24.083Z,20.46
2022-08-06T01:10:30.962Z,20.23
2022-08-06T01:14:03.850Z,19.33
2022-08-06T01:16:39.792Z,20.49
2022-08-06T01:21:56.581Z,20.42
2022-08-06T01:23:32.445Z,20.41
2022-08-06T01:26:33.044Z,20.36
2022-08-06T01:29:35.048Z,20.15
2022-08-06T01:32:45.644Z,20.31
2022-08-06T01:35:47.864Z,19.45
2022-08-06T01:38:50.815Z,19.95
2022-08-06T01:41:54.999Z,20.11
2022-08-06T01:44:49.807Z,19.67
2022-08-06T01:47:54.108Z,19.99
2022-08-06T01:50:45.411Z,19.89
2022-08-06T01:54:01.842Z,19.62
2022-08-06T01:56:57.573Z,19.89
2022-08-06T01:59:48.629Z,19.72
2022-08-06T02:02:37.407Z,19.01
2022-08-06T02:05:32.231Z,19.98
2022-08-06T02:08:38.766Z,20.02
2022-08-06T02:12:03.054Z,18.80
2022-08-06T02:14:36.186Z,20.01
2022-08-06T02:18:04.620Z,19.74
2022-08-06T02:20:52.862Z,19.98
2022-08-06T02:23:41.217Z,19.96
2022-08-06T02:26:32.863Z,19.94
2022-08-06T02:29:21.178Z,19.28
2022-08-06T02:32:08.870Z,19.90
2022-08-06T02:34:56.005Z,19.51
2022-08-06T02:38:02.303Z,19.88
2022-08-06T02:40:56.262Z,19.77
2022-08-06T02:43:52.457Z,19.84
2022-08-06T02:46:44.542Z,19.83
2022-08-06T02:49:38.148Z,19.78
2022-08-06T02:52:37.376Z,19.82
2022-08-06T02:55:37.248Z,19.71
2022-08-06T02:58:38.658Z,19.76
2022-08-06T03:01:39.321Z,18.96
2022-08-06T03:04:33.264Z,19.71
2022-08-06T03:07:27.565Z,19.56
2022-08-06T03:10:20.469Z,19.15
2022-08-06T03:13:17.960Z,19.69
2022-08-06T03:16:24.167Z,19.44
2022-08-06T03:19:57.004Z,18.77
2022-08-06T03:22:35.827Z,18.78
2022-08-06T03:25:25.701Z,19.67
2022-08-06T03:28:20.674Z,18.70
2022-08-06T03:31:10.967Z,19.61
2022-08-06T03:33:59.663Z,18.79
2022-08-06T03:36:51.297Z,19.45
2022-08-06T03:39:40.555Z,19.23
2022-08-06T03:42:27.798Z,19.39
2022-08-06T03:45:45.371Z,19.66
2022-08-06T03:48:38.337Z,19.47
2022-08-06T03:51:50.589Z,16.93
2022-08-06T03:54:42.506Z,18.46
2022-08-06T03:57:40.996Z,19.75
2022-08-06T04:00:41.405Z,19.53
2022-08-06T04:03:39.706Z,18.70
2022-08-06T04:06:27.421Z,19.79
2022-08-06T04:09:14.659Z,19.83
2022-08-06T04:12:42.589Z,19.73
2022-08-06T04:15:25.984Z,19.83
2022-08-06T04:18:19.967Z,19.27
2022-08-06T04:21:22.055Z,19.54
2022-08-06T04:24:15.904Z,20.02
2022-08-06T04:27:09.288Z,20.19
2022-08-06T04:30:02.270Z,20.36
2022-08-06T04:33:00.903Z,20.41
2022-08-06T04:36:07.715Z,19.72
2022-08-06T04:38:57.353Z,20.64
2022-08-06T04:41:44.662Z,20.61
2022-08-06T04:44:33.324Z,20.62
2022-08-06T04:47:20.238Z,20.63
2022-08-06T04:50:07.648Z,20.09
2022-08-06T04:53:05.268Z,20.92
2022-08-06T04:56:03.125Z,21.06
2022-08-06T04:58:49.931Z,20.26
2022-08-06T05:01:53.145Z,20.94
2022-08-06T05:04:39.993Z,21.27
2022-08-06T05:07:53.212Z,22.35
2022-08-06T05:11:10.897Z,22.78
2022-08-06T05:14:02.539Z,22.52
2022-08-06T05:16:58.788Z,22.75
2022-08-06T05:19:51.379Z,23.67
2022-08-06T05:22:52.389Z,23.89
2022-08-06T05:25:54.219Z,23.87
2022-08-06T05:28:43.640Z,24.47
2022-08-06T05:31:40.444Z,24.71
2022-08-06T05:34:26.977Z,24.93
2022-08-06T05:37:13.056Z,25.11
2022-08-06T05:39:59.703Z,25.14
2022-08-06T05:42:57.300Z,25.40
2022-08-06T05:45:46.258Z,25.73
2022-08-06T05:48:38.349Z,25.86
2022-08-06T05:51:55.857Z,26.04
2022-08-06T05:55:02.643Z,26.22
2022-08-06T05:58:08.641Z,26.05
2022-08-06T06:01:01.041Z,26.41
2022-08-06T06:03:48.871Z,26.09
2022-08-06T06:06:36.889Z,26.58
2022-08-06T06:09:56.745Z,26.22
2022-08-06T06:12:31.841Z,26.70
2022-08-06T06:16:01.704Z,26.77
2022-08-06T06:18:56.106Z,26.80
2022-08-06T06:22:07.831Z,26.85
2022-08-06T06:25:01.017Z,26.85
2022-08-06T06:27:57.966Z,26.02
2022-08-06T06:32:04.609Z,26.89
2022-08-06T06:34:39.010Z,27.04
2022-08-06T06:37:48.463Z,27.10
2022-08-06T06:41:03.337Z,27.16
2022-08-06T06:46:05.342Z,27.21
2022-08-06T06:48:22.626Z,27.04
2022-08-06T06:51:40.840Z,27.32
2022-08-06T06:54:37.815Z,27.20
2022-08-06T06:57:45.931Z,26.54
2022-08-06T07:00:43.537Z,27.52
2022-08-06T07:03:42.652Z,27.57
2022-08-06T07:06:43.352Z,27.61
2022-08-06T07:09:40.972Z,27.47
2022-08-06T07:12:33.906Z,27.41
2022-08-06T07:15:24.069Z,27.55
2022-08-06T07:18:26.224Z,27.97
2022-08-06T07:21:19.283Z,28.07
2022-08-06T07:24:32.338Z,27.99
2022-08-06T07:27:16.136Z,28.22
2022-08-06T07:30:03.272Z,28.15
2022-08-06T07:32:52.652Z,27.83
2022-08-06T07:35:42.300Z,28.18
2022-08-06T07:38:32.366Z,27.35
2022-08-06T07:41:31.534Z,27.56
2022-08-06T07:44:29.604Z,28.17
2022-08-06T07:47:29.569Z,28.08
2022-08-06T07:50:16.426Z,27.74
2022-08-06T07:53:02.879Z,28.35
2022-08-06T07:55:48.828Z,28.58
2022-08-06T07:58:39.775Z,28.56
2022-08-06T08:01:37.033Z,28.49
2022-08-06T08:04:57.256Z,28.75
2022-08-06T08:07:57.183Z,28.49
2022-08-06T08:10:44.360Z,28.88
2022-08-06T08:13:41.647Z,28.85
2022-08-06T08:16:33.791Z,28.20
2022-08-06T08:19:35.106Z,28.98
2022-08-06T08:22:24.235Z,28.27
2022-08-06T08:25:10.464Z,29.05
2022-08-06T08:28:00.808Z,29.12
2022-08-06T08:30:49.482Z,29.10
2022-08-06T08:33:37.165Z,29.14
2022-08-06T08:36:30.863Z,28.39
2022-08-06T08:39:17.180Z,29.28
2022-08-06T08:42:32.060Z,29.29
2022-08-06T08:45:19.545Z,29.17
2022-08-06T08:48:15.475Z,28.62
2022-08-06T08:51:13.699Z,29.38
2022-08-06T08:54:10.120Z,29.42
2022-08-06T08:57:08.282Z,29.06
2022-08-06T09:00:10.860Z,28.72
2022-08-06T09:02:57.572Z,28.95
2022-08-06T09:05:47.083Z,29.35
2022-08-06T09:09:02.430Z,29.45
2022-08-06T09:12:03.752Z,29.48
2022-08-06T09:14:47.031Z,29.65
2022-08-06T09:18:12.315Z,29.59
2022-08-06T09:20:45.669Z,29.61
2022-08-06T09:23:36.858Z,29.60
2022-08-06T09:26:54.762Z,29.54
2022-08-06T09:30:11.788Z,29.32
2022-08-06T09:34:29.262Z,29.56
2022-08-06T09:36:32.791Z,29.78
2022-08-06T09:40:00.254Z,29.70
2022-08-06T09:42:51.306Z,29.73
2022-08-06T09:45:47.503Z,28.97
2022-08-06T09:48:36.086Z,29.90
2022-08-06T09:51:26.723Z,29.89
2022-08-06T09:54:38.418Z,29.48
2022-08-06T09:57:33.049Z,29.15
2022-08-06T10:00:33.083Z,29.88
2022-08-06T10:04:03.344Z,29.81
2022-08-06T10:06:29.674Z,29.75
2022-08-06T10:09:41.730Z,29.81
2022-08-06T10:12:26.895Z,29.65
2022-08-06T10:15:57.764Z,29.66
2022-08-06T10:18:56.246Z,29.11
2022-08-06T10:21:46.668Z,29.45
2022-08-06T10:24:48.780Z,29.37
2022-08-06T10:27:38.201Z,29.31
2022-08-06T10:30:25.087Z,29.25
2022-08-06T10:33:22.230Z,29.20
2022-08-06T10:36:22.156Z,29.14
2022-08-06T10:40:07.209Z,29.11
2022-08-06T10:42:22.186Z,28.30
2022-08-06T10:45:16.135Z,28.35
2022-08-06T10:48:59.449Z,29.12
2022-08-06T10:51:15.108Z,29.36
2022-08-06T10:54:19.938Z,29.12
2022-08-06T10:57:10.818Z,29.03
2022-08-06T11:00:03.242Z,29.61
2022-08-06T11:03:16.581Z,29.62
2022-08-06T11:06:18.054Z,29.69
2022-08-06T11:10:00.056Z,29.66
2022-08-06T11:12:47.925Z,29.79
2022-08-06T11:15:38.377Z,29.56
2022-08-06T11:18:28.321Z,29.81
2022-08-06T11:21:58.946Z,29.86
2022-08-06T11:24:55.543Z,29.35
2022-08-06T11:28:02.839Z,29.83
2022-08-06T11:31:33.534Z,29.79
2022-08-06T11:34:48.612Z,29.40
2022-08-06T11:38:00.894Z,29.26
2022-08-06T11:41:51.489Z,28.81
2022-08-06T11:44:42.931Z,29.15
2022-08-06T11:48:05.236Z,29.69
2022-08-06T11:50:52.576Z,29.73
2022-08-06T11:53:46.527Z,29.01
2022-08-06T11:56:59.631Z,29.89
2022-08-06T11:59:58.570Z,29.96
2022-08-06T12:02:56.940Z,29.99
2022-08-06T12:05:56.853Z,29.99
2022-08-06T12:09:11.926Z,30.05
2022-08-06T12:12:34.969Z,30.02
2022-08-06T12:15:58.960Z,30.00
2022-08-06T12:18:39.507Z,29.76
2022-08-06T12:21:29.605Z,30.02
2022-08-06T12:24:51.607Z,30.04
2022-08-06T12:27:46.013Z,29.96
2022-08-06T12:30:48.705Z,29.90
2022-08-06T12:33:44.154Z,29.89
2022-08-06T12:36:35.251Z,30.01
2022-08-06T12:39:45.591Z,29.99
2022-08-06T12:42:53.926Z,29.95
2022-08-06T12:46:06.866Z,30.04
2022-08-06T12:49:06.517Z,30.03
2022-08-06T12:51:54.670Z,30.13
2022-08-06T12:54:47.747Z,30.13
2022-08-06T12:57:57.803Z,30.05
2022-08-06T13:00:58.153Z,30.13
2022-08-06T13:04:01.423Z,30.03
2022-08-06T13:07:21.170Z,30.20
2022-08-06T13:10:39.038Z,30.06
2022-08-06T13:14:14.410Z,30.31
2022-08-06T13:16:56.539Z,30.28
2022-08-06T13:19:56.449Z,30.20
2022-08-06T13:22:54.205Z,30.20
2022-08-06T13:25:53.035Z,30.17
2022-08-06T13:30:31.298Z,30.16
2022-08-06T13:32:33.290Z,30.16
2022-08-06T13:35:32.762Z,29.62
2022-08-06T13:38:36.849Z,29.94
2022-08-06T13:41:29.668Z,29.92
2022-08-06T13:44:34.067Z,29.52
2022-08-06T13:47:38.719Z,29.89
2022-08-06T13:50:41.033Z,29.96
2022-08-06T13:53:40.443Z,29.31
2022-08-06T13:56:37.497Z,30.05
2022-08-06T13:59:41.460Z,29.33
2022-08-06T14:02:30.415Z,29.98
2022-08-06T14:05:23.823Z,29.53
2022-08-06T14:08:26.735Z,29.99
2022-08-06T14:11:21.708Z,29.87
2022-08-06T14:14:09.225Z,29.02
2022-08-06T14:17:03.181Z,29.78
2022-08-06T14:20:14.887Z,29.94
2022-08-06T14:22:55.658Z,29.17
2022-08-06T14:26:00.442Z,29.83
2022-08-06T14:28:54.591Z,30.13
2022-08-06T14:31:58.659Z,30.11
2022-08-06T14:34:45.301Z,30.04
2022-08-06T14:37:32.920Z,29.91
2022-08-06T14:41:02.102Z,29.92
2022-08-06T14:44:07.846Z,29.80
2022-08-06T14:46:55.487Z,28.85
2022-08-06T14:49:51.960Z,29.83
2022-08-06T14:52:40.633Z,29.82
2022-08-06T14:55:31.668Z,29.83
2022-08-06T14:58:17.972Z,29.86
2022-08-06T15:01:17.428Z,29.85
2022-08-06T15:04:24.180Z,29.85
2022-08-06T15:07:24.812Z,29.85
2022-08-06T15:10:29.672Z,29.83
2022-08-06T15:13:16.293Z,29.84
2022-08-06T15:16:22.457Z,29.82
2022-08-06T15:19:20.660Z,29.88
2022-08-06T15:22:35.641Z,29.81
2022-08-06T15:26:01.595Z,29.73
2022-08-06T15:28:31.078Z,29.75
2022-08-06T15:31:20.572Z,29.52
2022-08-06T15:34:07.026Z,29.76
2022-08-06T15:37:01.420Z,28.88
2022-08-06T15:39:53.276Z,29.70
2022-08-06T15:42:43.611Z,29.48
2022-08-06T15:45:50.246Z,29.64
2022-08-06T15:48:35.099Z,29.61
2022-08-06T15:51:29.647Z,28.95
2022-08-06T15:54:18.806Z,28.88
2022-08-06T15:57:06.472Z,29.35
2022-08-06T16:00:05.165Z,29.50
2022-08-06T16:03:08.626Z,29.43
2022-08-06T16:06:12.708Z,29.27
2022-08-06T16:09:04.965Z,29.31
2022-08-06T16:11:54.563Z,29.23
2022-08-06T16:14:47.709Z,28.27
2022-08-06T16:18:05.954Z,28.72
2022-08-06T16:20:56.966Z,28.76
2022-08-06T16:23:56.633Z,28.73
2022-08-06T16:26:48.566Z,28.83
2022-08-06T16:29:37.091Z,28.72
2022-08-06T16:32:26.095Z,28.64
2022-08-06T16:35:15.454Z,28.57
2022-08-06T16:38:12.109Z,27.77
2022-08-06T16:41:03.700Z,28.01
2022-08-06T16:43:52.206Z,28.42
2022-08-06T16:46:43.681Z,27.98
2022-08-06T16:50:17.305Z,28.26
2022-08-06T16:52:43.232Z,27.93
2022-08-06T16:55:48.869Z,28.00
2022-08-06T16:58:42.711Z,27.77
2022-08-06T17:02:20.876Z,27.76
2022-08-06T17:05:03.221Z,26.77
2022-08-06T17:07:55.055Z,26.53
2022-08-06T17:10:58.152Z,26.86
2022-08-06T17:14:05.458Z,27.12
2022-08-06T17:17:06.954Z,26.98
2022-08-06T17:19:55.665Z,25.97
2022-08-06T17:23:01.728Z,26.82
2022-08-06T17:26:01.176Z,25.96
2022-08-06T17:28:51.995Z,26.72
2022-08-06T17:31:58.404Z,26.42
2022-08-06T17:34:48.297Z,26.64
2022-08-06T17:37:43.784Z,26.57
2022-08-06T17:40:34.245Z,25.53
2022-08-06T17:43:56.725Z,26.44
2022-08-06T17:46:37.822Z,26.15
2022-08-06T17:49:38.063Z,26.17
2022-08-06T17:52:31.970Z,26.18
2022-08-06T17:55:36.784Z,26.12
2022-08-06T17:58:37.462Z,25.98
2022-08-06T18:01:44.132Z,25.58
2022-08-06T18:04:35.621Z,25.10
2022-08-06T18:08:07.935Z,25.77
2022-08-06T18:10:36.603Z,25.68
2022-08-06T18:13:52.062Z,25.31
2022-08-06T18:16:44.611Z,25.56
2022-08-06T18:19:36.465Z,24.76
2022-08-06T18:22:25.481Z,25.48
2022-08-06T18:25:14.819Z,25.22
2022-08-06T18:28:01.887Z,24.99
2022-08-06T18:30:50.831Z,25.10
2022-08-06T18:33:38.161Z,25.01
2022-08-06T18:36:43.978Z,25.06
2022-08-06T18:40:18.052Z,24.99
2022-08-06T18:42:42.327Z,24.96
2022-08-06T18:45:36.886Z,24.92
2022-08-06T18:48:25.107Z,24.95
2022-08-06T18:51:13.784Z,24.91
2022-08-06T18:54:05.311Z,24.96
2022-08-06T18:56:54.656Z,24.93
2022-08-06T18:59:51.108Z,24.61
2022-08-06T19:02:43.379Z,24.83
2022-08-06T19:05:40.218Z,24.65
2022-08-06T19:08:31.515Z,24.64
2022-08-06T19:11:17.532Z,24.21
2022-08-06T19:14:18.846Z,24.41
2022-08-06T19:17:09.260Z,23.38
2022-08-06T19:20:18.822Z,23.95
2022-08-06T19:23:06.697Z,24.08
2022-08-06T19:26:13.037Z,23.96
2022-08-06T19:29:02.170Z,23.95
2022-08-06T19:31:50.132Z,23.57
2022-08-06T19:34:38.574Z,22.82
2022-08-06T19:37:59.709Z,23.67
2022-08-06T19:40:52.788Z,23.67
2022-08-06T19:44:28.022Z,23.04
2022-08-06T19:46:56.183Z,23.59
2022-08-06T19:49:45.118Z,22.50
2022-08-06T19:52:46.389Z,23.43
2022-08-06T19:56:07.650Z,23.38
2022-08-06T20:00:51.159Z,23.24
2022-08-06T20:02:09.276Z,23.32
2022-08-06T20:05:01.398Z,23.25
2022-08-06T20:07:56.105Z,23.31
2022-08-06T20:10:58.551Z,23.26
2022-08-06T20:13:46.188Z,23.26
2022-08-06T20:16:34.449Z,23.28
2022-08-06T20:20:05.266Z,22.50
2022-08-06T20:22:32.631Z,23.19
2022-08-06T20:25:23.699Z,23.19
2022-08-06T20:29:08.293Z,23.15
2022-08-06T20:31:21.117Z,23.02
2022-08-06T20:34:07.610Z,23.18
2022-08-06T20:36:59.098Z,23.15
2022-08-06T20:39:48.521Z,23.12
2022-08-06T20:42:36.237Z,22.17
2022-08-06T20:45:56.364Z,22.13
2022-08-06T20:48:39.951Z,23.03
2022-08-06T20:51:29.213Z,23.03
2022-08-06T20:54:19.155Z,22.01
2022-08-06T20:57:13.013Z,22.92
2022-08-06T21:00:28.549Z,22.95
2022-08-06T21:05:11.578Z,22.64
2022-08-06T21:06:30.777Z,22.92
2022-08-06T21:09:19.934Z,22.92
2022-08-06T21:12:21.134Z,22.84
2022-08-06T21:15:42.543Z,22.82
2022-08-06T21:18:21.822Z,22.76
2022-08-06T21:21:11.066Z,22.72
2022-08-06T21:23:58.360Z,22.57
2022-08-06T21:26:56.254Z,22.64
2022-08-06T21:30:09.239Z,22.71
2022-08-06T21:32:54.368Z,22.74
2022-08-06T21:35:42.525Z,22.74
2022-08-06T21:38:29.879Z,22.69
2022-08-06T21:41:56.082Z,22.55
2022-08-06T21:44:37.175Z,21.50
2022-08-06T21:47:36.379Z,21.26
2022-08-06T21:50:32.819Z,22.16
2022-08-06T21:53:49.939Z,21.96
2022-08-06T21:56:38.037Z,21.53
2022-08-06T21:59:29.825Z,21.87
2022-08-06T22:02:28.028Z,21.78
2022-08-06T22:05:16.870Z,21.48
2022-08-06T22:08:19.095Z,21.58
2022-08-06T22:12:37.577Z,21.28
2022-08-06T22:14:16.287Z,21.38
2022-08-06T22:17:01.866Z,21.32
2022-08-06T22:19:47.605Z,21.30
2022-08-06T22:22:36.028Z,20.52
2022-08-06T22:25:24.014Z,20.61
2022-08-06T22:28:09.854Z,21.06
2022-08-06T22:31:09.037Z,21.06
2022-08-06T22:34:01.119Z,20.61
2022-08-06T22:36:51.605Z,20.97
2022-08-06T22:39:39.685Z,20.16
2022-08-06T22:42:35.632Z,20.94
2022-08-06T22:46:00.205Z,20.24
2022-08-06T22:48:37.440Z,20.88
2022-08-06T22:51:28.716Z,20.87
2022-08-06T22:54:28.918Z,20.85
2022-08-06T22:57:18.707Z,20.64
2022-08-06T23:00:11.748Z,19.97
2022-08-06T23:03:13.562Z,20.68
2022-08-06T23:06:00.482Z,19.42
2022-08-06T23:08:46.563Z,20.77
2022-08-06T23:11:35.468Z,20.74
2022-08-06T23:14:27.343Z,20.68
2022-08-06T23:17:22.035Z,19.62
2022-08-06T23:20:11.761Z,20.58
2022-08-06T23:22:58.284Z,19.51
2022-08-06T23:26:00.568Z,19.61
2022-08-06T23:28:49.089Z,19.38
2022-08-06T23:31:37.108Z,20.30
2022-08-06T23:34:35.763Z,19.80
2022-08-06T23:37:21.481Z,20.30
2022-08-06T23:40:15.668Z,20.29
2022-08-06T23:43:01.699Z,19.69
2022-08-06T23:45:48.013Z,20.25
2022-08-06T23:48:34.358Z,20.20
2022-08-06T23:52:01.187Z,19.11
2022-08-06T23:54:28.738Z,19.16
2022-08-06T23:57:17.667Z,19.98
